sensor_id;sensor_type;location;lat;lon;timestamp;P1;durP1;ratioP1;P2;durP2;ratioP2
75554;SDS011;66087;53.126;17.960;2023-03-12T00:00:19;10.90;;;3.10;;
75554;SDS011;66087;53.126;17.960;2023-03-12T00:03:06;6.70;;;2.70;;
75554;SDS011;66087;53.126;17.960;2023-03-12T00:05:36;6.10;;;2.50;;
75554;SDS011;66087;53.126;17.960;2023-03-12T00:08:04;5.30;;;2.30;;
75554;SDS011;66087;53.126;17.960;2023-03-12T00:10:31;4.70;;;1.90;;
75554;SDS011;66087;53.126;17.960;2023-03-12T00:12:59;9.20;;;3.40;;
75554;SDS011;66087;53.126;17.960;2023-03-12T00:15:26;6.50;;;2.60;;
75554;SDS011;66087;53.126;17.960;2023-03-12T00:17:53;6.80;;;2.10;;
75554;SDS011;66087;53.126;17.960;2023-03-12T00:20:20;8.20;;;2.70;;
75554;SDS011;66087;53.126;17.960;2023-03-12T00:22:49;6.60;;;2.80;;
75554;SDS011;66087;53.126;17.960;2023-03-12T00:25:16;7.00;;;2.60;;
75554;SDS011;66087;53.126;17.960;2023-03-12T00:27:42;8.60;;;3.50;;
75554;SDS011;66087;53.126;17.960;2023-03-12T00:30:09;10.10;;;2.40;;
75554;SDS011;66087;53.126;17.960;2023-03-12T00:32:38;7.70;;;3.10;;
75554;SDS011;66087;53.126;17.960;2023-03-12T00:35:05;8.60;;;3.70;;
75554;SDS011;66087;53.126;17.960;2023-03-12T00:37:32;7.60;;;3.10;;
75554;SDS011;66087;53.126;17.960;2023-03-12T00:39:59;7.80;;;2.40;;
75554;SDS011;66087;53.126;17.960;2023-03-12T00:42:46;9.10;;;4.20;;
75554;SDS011;66087;53.126;17.960;2023-03-12T00:45:12;8.40;;;3.50;;
75554;SDS011;66087;53.126;17.960;2023-03-12T00:47:41;7.60;;;2.80;;
75554;SDS011;66087;53.126;17.960;2023-03-12T00:50:08;9.50;;;3.10;;
75554;SDS011;66087;53.126;17.960;2023-03-12T00:52:35;6.90;;;2.90;;
75554;SDS011;66087;53.126;17.960;2023-03-12T00:55:02;6.80;;;2.30;;
75554;SDS011;66087;53.126;17.960;2023-03-12T00:57:29;5.00;;;1.70;;
75554;SDS011;66087;53.126;17.960;2023-03-12T00:59:56;7.60;;;3.00;;
75554;SDS011;66087;53.126;17.960;2023-03-12T01:02:22;6.30;;;3.00;;
75554;SDS011;66087;53.126;17.960;2023-03-12T01:04:49;7.60;;;3.70;;
75554;SDS011;66087;53.126;17.960;2023-03-12T01:07:15;8.80;;;2.60;;
75554;SDS011;66087;53.126;17.960;2023-03-12T01:09:42;8.40;;;2.80;;
75554;SDS011;66087;53.126;17.960;2023-03-12T01:12:09;7.30;;;2.70;;
75554;SDS011;66087;53.126;17.960;2023-03-12T01:14:35;3.60;;;1.50;;
75554;SDS011;66087;53.126;17.960;2023-03-12T01:17:02;7.30;;;3.70;;
75554;SDS011;66087;53.126;17.960;2023-03-12T01:19:30;5.30;;;1.50;;
75554;SDS011;66087;53.126;17.960;2023-03-12T01:21:57;8.20;;;2.40;;
75554;SDS011;66087;53.126;17.960;2023-03-12T01:24:24;7.00;;;2.70;;
75554;SDS011;66087;53.126;17.960;2023-03-12T01:26:50;7.10;;;2.80;;
75554;SDS011;66087;53.126;17.960;2023-03-12T01:29:19;9.80;;;3.50;;
75554;SDS011;66087;53.126;17.960;2023-03-12T01:31:46;4.80;;;1.70;;
75554;SDS011;66087;53.126;17.960;2023-03-12T01:34:12;5.30;;;2.30;;
75554;SDS011;66087;53.126;17.960;2023-03-12T01:36:39;6.40;;;2.60;;
75554;SDS011;66087;53.126;17.960;2023-03-12T01:39:07;3.80;;;1.60;;
75554;SDS011;66087;53.126;17.960;2023-03-12T01:41:54;5.90;;;2.60;;
75554;SDS011;66087;53.126;17.960;2023-03-12T01:44:21;9.50;;;2.10;;
75554;SDS011;66087;53.126;17.960;2023-03-12T01:46:48;8.40;;;3.40;;
75554;SDS011;66087;53.126;17.960;2023-03-12T01:49:23;4.70;;;2.20;;
75554;SDS011;66087;53.126;17.960;2023-03-12T01:51:56;6.00;;;2.00;;
75554;SDS011;66087;53.126;17.960;2023-03-12T01:57:14;7.50;;;3.10;;
75554;SDS011;66087;53.126;17.960;2023-03-12T01:59:52;5.40;;;2.00;;
75554;SDS011;66087;53.126;17.960;2023-03-12T02:02:22;5.00;;;2.10;;
75554;SDS011;66087;53.126;17.960;2023-03-12T02:04:56;4.90;;;1.70;;
75554;SDS011;66087;53.126;17.960;2023-03-12T02:07:32;5.30;;;2.70;;
75554;SDS011;66087;53.126;17.960;2023-03-12T02:10:20;7.50;;;3.20;;
75554;SDS011;66087;53.126;17.960;2023-03-12T02:12:47;5.80;;;2.20;;
75554;SDS011;66087;53.126;17.960;2023-03-12T02:15:14;9.20;;;2.70;;
75554;SDS011;66087;53.126;17.960;2023-03-12T02:17:45;7.70;;;2.60;;
75554;SDS011;66087;53.126;17.960;2023-03-12T02:23:00;6.80;;;1.80;;
75554;SDS011;66087;53.126;17.960;2023-03-12T02:25:37;6.10;;;2.00;;
75554;SDS011;66087;53.126;17.960;2023-03-12T02:28:09;4.90;;;2.10;;
75554;SDS011;66087;53.126;17.960;2023-03-12T02:30:41;6.30;;;2.00;;
75554;SDS011;66087;53.126;17.960;2023-03-12T02:33:10;5.00;;;2.00;;
75554;SDS011;66087;53.126;17.960;2023-03-12T02:35:37;5.60;;;2.20;;
75554;SDS011;66087;53.126;17.960;2023-03-12T02:38:22;6.40;;;2.40;;
75554;SDS011;66087;53.126;17.960;2023-03-12T02:41:01;7.40;;;3.50;;
75554;SDS011;66087;53.126;17.960;2023-03-12T02:43:39;7.40;;;2.60;;
75554;SDS011;66087;53.126;17.960;2023-03-12T02:46:09;5.80;;;2.60;;
75554;SDS011;66087;53.126;17.960;2023-03-12T02:48:37;4.00;;;1.50;;
75554;SDS011;66087;53.126;17.960;2023-03-12T02:51:04;7.70;;;2.00;;
75554;SDS011;66087;53.126;17.960;2023-03-12T02:53:32;4.70;;;2.40;;
75554;SDS011;66087;53.126;17.960;2023-03-12T02:55:59;5.80;;;1.90;;
75554;SDS011;66087;53.126;17.960;2023-03-12T02:58:26;5.90;;;2.30;;
75554;SDS011;66087;53.126;17.960;2023-03-12T03:00:53;5.90;;;1.70;;
75554;SDS011;66087;53.126;17.960;2023-03-12T03:03:19;4.40;;;1.60;;
75554;SDS011;66087;53.126;17.960;2023-03-12T03:05:46;3.40;;;1.40;;
75554;SDS011;66087;53.126;17.960;2023-03-12T03:08:13;3.40;;;1.30;;
75554;SDS011;66087;53.126;17.960;2023-03-12T03:10:40;4.40;;;1.40;;
75554;SDS011;66087;53.126;17.960;2023-03-12T03:13:07;2.20;;;1.10;;
75554;SDS011;66087;53.126;17.960;2023-03-12T03:15:33;5.10;;;1.60;;
75554;SDS011;66087;53.126;17.960;2023-03-12T03:18:01;5.30;;;2.20;;
75554;SDS011;66087;53.126;17.960;2023-03-12T03:20:53;4.80;;;1.60;;
75554;SDS011;66087;53.126;17.960;2023-03-12T03:23:23;5.30;;;2.50;;
75554;SDS011;66087;53.126;17.960;2023-03-12T03:25:50;3.70;;;1.50;;
75554;SDS011;66087;53.126;17.960;2023-03-12T03:28:19;6.00;;;1.20;;
75554;SDS011;66087;53.126;17.960;2023-03-12T03:30:48;4.80;;;2.20;;
75554;SDS011;66087;53.126;17.960;2023-03-12T03:33:17;5.50;;;2.40;;
75554;SDS011;66087;53.126;17.960;2023-03-12T03:35:44;5.90;;;1.70;;
75554;SDS011;66087;53.126;17.960;2023-03-12T03:38:11;6.60;;;1.60;;
75554;SDS011;66087;53.126;17.960;2023-03-12T03:40:38;3.80;;;1.20;;
75554;SDS011;66087;53.126;17.960;2023-03-12T03:43:05;3.80;;;1.30;;
75554;SDS011;66087;53.126;17.960;2023-03-12T03:45:32;5.30;;;1.20;;
75554;SDS011;66087;53.126;17.960;2023-03-12T03:47:59;6.50;;;1.70;;
75554;SDS011;66087;53.126;17.960;2023-03-12T03:50:46;3.70;;;1.10;;
75554;SDS011;66087;53.126;17.960;2023-03-12T03:53:14;4.50;;;0.90;;
75554;SDS011;66087;53.126;17.960;2023-03-12T03:55:41;3.80;;;1.30;;
75554;SDS011;66087;53.126;17.960;2023-03-12T03:58:08;2.90;;;0.80;;
75554;SDS011;66087;53.126;17.960;2023-03-12T04:00:35;4.60;;;1.70;;
75554;SDS011;66087;53.126;17.960;2023-03-12T04:03:01;1.40;;;0.60;;
75554;SDS011;66087;53.126;17.960;2023-03-12T04:05:28;3.40;;;0.80;;
75554;SDS011;66087;53.126;17.960;2023-03-12T04:07:56;9.50;;;1.80;;
75554;SDS011;66087;53.126;17.960;2023-03-12T04:10:28;4.00;;;1.10;;
75554;SDS011;66087;53.126;17.960;2023-03-12T04:12:56;2.80;;;1.20;;
75554;SDS011;66087;53.126;17.960;2023-03-12T04:15:23;4.80;;;1.10;;
75554;SDS011;66087;53.126;17.960;2023-03-12T04:17:50;3.70;;;1.00;;
75554;SDS011;66087;53.126;17.960;2023-03-12T04:20:17;4.80;;;2.50;;
75554;SDS011;66087;53.126;17.960;2023-03-12T04:22:44;4.20;;;1.10;;
75554;SDS011;66087;53.126;17.960;2023-03-12T04:25:11;4.10;;;1.60;;
75554;SDS011;66087;53.126;17.960;2023-03-12T04:27:37;3.00;;;1.00;;
75554;SDS011;66087;53.126;17.960;2023-03-12T04:30:04;4.90;;;1.10;;
75554;SDS011;66087;53.126;17.960;2023-03-12T04:32:32;4.30;;;1.60;;
75554;SDS011;66087;53.126;17.960;2023-03-12T04:34:59;3.20;;;1.20;;
75554;SDS011;66087;53.126;17.960;2023-03-12T04:37:26;3.00;;;1.20;;
75554;SDS011;66087;53.126;17.960;2023-03-12T04:39:54;4.00;;;1.70;;
75554;SDS011;66087;53.126;17.960;2023-03-12T04:42:21;8.10;;;1.70;;
75554;SDS011;66087;53.126;17.960;2023-03-12T04:44:49;6.30;;;1.80;;
75554;SDS011;66087;53.126;17.960;2023-03-12T04:47:18;6.60;;;1.50;;
75554;SDS011;66087;53.126;17.960;2023-03-12T04:49:45;4.10;;;1.80;;
75554;SDS011;66087;53.126;17.960;2023-03-12T04:52:12;7.90;;;2.10;;
75554;SDS011;66087;53.126;17.960;2023-03-12T04:54:39;3.30;;;1.40;;
75554;SDS011;66087;53.126;17.960;2023-03-12T04:57:05;3.20;;;1.40;;
75554;SDS011;66087;53.126;17.960;2023-03-12T04:59:32;3.50;;;1.30;;
75554;SDS011;66087;53.126;17.960;2023-03-12T05:01:59;4.30;;;2.00;;
75554;SDS011;66087;53.126;17.960;2023-03-12T05:04:28;7.00;;;1.90;;
75554;SDS011;66087;53.126;17.960;2023-03-12T05:07:14;7.50;;;2.30;;
75554;SDS011;66087;53.126;17.960;2023-03-12T05:09:41;6.10;;;2.00;;
75554;SDS011;66087;53.126;17.960;2023-03-12T05:12:09;6.20;;;1.80;;
75554;SDS011;66087;53.126;17.960;2023-03-12T05:14:36;7.60;;;2.80;;
75554;SDS011;66087;53.126;17.960;2023-03-12T05:17:06;3.90;;;1.20;;
75554;SDS011;66087;53.126;17.960;2023-03-12T05:19:33;2.60;;;1.10;;
75554;SDS011;66087;53.126;17.960;2023-03-12T05:22:01;4.40;;;1.60;;
75554;SDS011;66087;53.126;17.960;2023-03-12T05:24:28;5.20;;;1.50;;
75554;SDS011;66087;53.126;17.960;2023-03-12T05:26:55;6.30;;;1.90;;
75554;SDS011;66087;53.126;17.960;2023-03-12T05:29:23;4.40;;;1.20;;
75554;SDS011;66087;53.126;17.960;2023-03-12T05:31:52;5.50;;;1.80;;
75554;SDS011;66087;53.126;17.960;2023-03-12T05:34:19;3.20;;;1.40;;
75554;SDS011;66087;53.126;17.960;2023-03-12T05:36:46;4.60;;;0.90;;
75554;SDS011;66087;53.126;17.960;2023-03-12T05:39:15;3.30;;;1.20;;
75554;SDS011;66087;53.126;17.960;2023-03-12T05:41:43;4.20;;;1.10;;
75554;SDS011;66087;53.126;17.960;2023-03-12T05:44:12;4.80;;;1.40;;
75554;SDS011;66087;53.126;17.960;2023-03-12T05:46:46;5.00;;;1.70;;
75554;SDS011;66087;53.126;17.960;2023-03-12T05:49:13;4.80;;;1.20;;
75554;SDS011;66087;53.126;17.960;2023-03-12T05:51:39;4.50;;;1.10;;
75554;SDS011;66087;53.126;17.960;2023-03-12T05:54:07;6.50;;;1.00;;
75554;SDS011;66087;53.126;17.960;2023-03-12T05:56:35;5.70;;;1.30;;
75554;SDS011;66087;53.126;17.960;2023-03-12T05:59:03;4.80;;;1.00;;
75554;SDS011;66087;53.126;17.960;2023-03-12T06:01:30;5.90;;;1.10;;
75554;SDS011;66087;53.126;17.960;2023-03-12T06:03:59;3.90;;;1.30;;
75554;SDS011;66087;53.126;17.960;2023-03-12T06:06:28;5.40;;;1.00;;
75554;SDS011;66087;53.126;17.960;2023-03-12T06:08:56;3.10;;;0.90;;
75554;SDS011;66087;53.126;17.960;2023-03-12T06:11:23;4.20;;;1.40;;
75554;SDS011;66087;53.126;17.960;2023-03-12T06:13:50;5.70;;;1.10;;
75554;SDS011;66087;53.126;17.960;2023-03-12T06:16:19;5.40;;;0.90;;
75554;SDS011;66087;53.126;17.960;2023-03-12T06:18:47;3.50;;;0.80;;
75554;SDS011;66087;53.126;17.960;2023-03-12T06:21:21;4.00;;;1.20;;
75554;SDS011;66087;53.126;17.960;2023-03-12T06:23:52;3.70;;;1.00;;
75554;SDS011;66087;53.126;17.960;2023-03-12T06:26:24;5.00;;;1.10;;
75554;SDS011;66087;53.126;17.960;2023-03-12T06:28:51;4.10;;;0.90;;
75554;SDS011;66087;53.126;17.960;2023-03-12T06:31:19;4.30;;;0.80;;
75554;SDS011;66087;53.126;17.960;2023-03-12T06:33:47;4.70;;;1.00;;
75554;SDS011;66087;53.126;17.960;2023-03-12T06:36:14;4.20;;;1.60;;
75554;SDS011;66087;53.126;17.960;2023-03-12T06:38:41;7.80;;;2.20;;
75554;SDS011;66087;53.126;17.960;2023-03-12T06:41:10;4.90;;;1.70;;
75554;SDS011;66087;53.126;17.960;2023-03-12T06:43:40;4.60;;;1.60;;
75554;SDS011;66087;53.126;17.960;2023-03-12T06:46:11;2.40;;;1.10;;
75554;SDS011;66087;53.126;17.960;2023-03-12T06:48:42;3.20;;;1.30;;
75554;SDS011;66087;53.126;17.960;2023-03-12T06:51:12;5.80;;;0.80;;
75554;SDS011;66087;53.126;17.960;2023-03-12T06:53:40;5.40;;;1.60;;
75554;SDS011;66087;53.126;17.960;2023-03-12T06:56:08;5.60;;;1.30;;
75554;SDS011;66087;53.126;17.960;2023-03-12T06:58:35;4.40;;;1.40;;
75554;SDS011;66087;53.126;17.960;2023-03-12T07:01:02;4.60;;;1.80;;
75554;SDS011;66087;53.126;17.960;2023-03-12T07:03:30;3.60;;;1.00;;
75554;SDS011;66087;53.126;17.960;2023-03-12T07:05:57;2.20;;;0.90;;
75554;SDS011;66087;53.126;17.960;2023-03-12T07:08:25;6.00;;;1.50;;
75554;SDS011;66087;53.126;17.960;2023-03-12T07:10:56;5.30;;;1.60;;
75554;SDS011;66087;53.126;17.960;2023-03-12T07:13:25;4.40;;;1.50;;
75554;SDS011;66087;53.126;17.960;2023-03-12T07:15:52;4.70;;;1.10;;
75554;SDS011;66087;53.126;17.960;2023-03-12T07:18:19;5.70;;;2.00;;
75554;SDS011;66087;53.126;17.960;2023-03-12T07:20:46;4.80;;;1.50;;
75554;SDS011;66087;53.126;17.960;2023-03-12T07:23:15;8.10;;;2.40;;
75554;SDS011;66087;53.126;17.960;2023-03-12T07:25:42;4.90;;;1.50;;
75554;SDS011;66087;53.126;17.960;2023-03-12T07:28:09;7.00;;;1.30;;
75554;SDS011;66087;53.126;17.960;2023-03-12T07:30:37;5.10;;;1.20;;
75554;SDS011;66087;53.126;17.960;2023-03-12T07:33:06;7.50;;;2.10;;
75554;SDS011;66087;53.126;17.960;2023-03-12T07:35:35;5.00;;;1.90;;
75554;SDS011;66087;53.126;17.960;2023-03-12T07:38:03;17.10;;;4.50;;
75554;SDS011;66087;53.126;17.960;2023-03-12T07:40:31;6.10;;;1.20;;
75554;SDS011;66087;53.126;17.960;2023-03-12T07:42:58;10.50;;;2.70;;
75554;SDS011;66087;53.126;17.960;2023-03-12T07:45:25;12.20;;;2.90;;
75554;SDS011;66087;53.126;17.960;2023-03-12T07:48:13;7.10;;;1.50;;
75554;SDS011;66087;53.126;17.960;2023-03-12T07:50:40;4.20;;;1.50;;
75554;SDS011;66087;53.126;17.960;2023-03-12T07:53:07;5.40;;;1.70;;
75554;SDS011;66087;53.126;17.960;2023-03-12T07:55:53;6.90;;;1.70;;
75554;SDS011;66087;53.126;17.960;2023-03-12T07:58:40;5.60;;;1.40;;
75554;SDS011;66087;53.126;17.960;2023-03-12T08:01:07;10.60;;;1.80;;
75554;SDS011;66087;53.126;17.960;2023-03-12T08:03:54;12.20;;;2.50;;
75554;SDS011;66087;53.126;17.960;2023-03-12T08:06:20;7.90;;;1.40;;
75554;SDS011;66087;53.126;17.960;2023-03-12T08:08:50;5.60;;;1.80;;
75554;SDS011;66087;53.126;17.960;2023-03-12T08:11:18;4.60;;;1.70;;
75554;SDS011;66087;53.126;17.960;2023-03-12T08:13:45;10.00;;;2.10;;
75554;SDS011;66087;53.126;17.960;2023-03-12T08:16:12;5.20;;;1.70;;
75554;SDS011;66087;53.126;17.960;2023-03-12T08:18:40;7.80;;;1.70;;
75554;SDS011;66087;53.126;17.960;2023-03-12T08:21:08;6.70;;;1.50;;
75554;SDS011;66087;53.126;17.960;2023-03-12T08:23:35;7.70;;;1.60;;
75554;SDS011;66087;53.126;17.960;2023-03-12T08:26:02;9.70;;;2.30;;
75554;SDS011;66087;53.126;17.960;2023-03-12T08:28:28;6.30;;;1.70;;
75554;SDS011;66087;53.126;17.960;2023-03-12T08:30:57;8.90;;;2.20;;
75554;SDS011;66087;53.126;17.960;2023-03-12T08:33:25;9.70;;;2.70;;
75554;SDS011;66087;53.126;17.960;2023-03-12T08:35:52;7.10;;;2.00;;
75554;SDS011;66087;53.126;17.960;2023-03-12T08:38:19;11.30;;;2.30;;
75554;SDS011;66087;53.126;17.960;2023-03-12T08:40:55;7.40;;;1.80;;
75554;SDS011;66087;53.126;17.960;2023-03-12T08:43:23;5.40;;;1.90;;
75554;SDS011;66087;53.126;17.960;2023-03-12T08:45:53;8.00;;;2.30;;
75554;SDS011;66087;53.126;17.960;2023-03-12T08:48:23;12.60;;;2.30;;
75554;SDS011;66087;53.126;17.960;2023-03-12T08:50:53;6.00;;;1.70;;
75554;SDS011;66087;53.126;17.960;2023-03-12T08:53:22;4.90;;;1.60;;
75554;SDS011;66087;53.126;17.960;2023-03-12T08:55:52;7.90;;;2.30;;
75554;SDS011;66087;53.126;17.960;2023-03-12T08:58:21;8.70;;;2.20;;
75554;SDS011;66087;53.126;17.960;2023-03-12T09:00:50;10.20;;;2.50;;
75554;SDS011;66087;53.126;17.960;2023-03-12T09:03:18;8.20;;;1.80;;
75554;SDS011;66087;53.126;17.960;2023-03-12T09:05:47;7.00;;;2.10;;
75554;SDS011;66087;53.126;17.960;2023-03-12T09:08:15;8.70;;;2.60;;
75554;SDS011;66087;53.126;17.960;2023-03-12T09:10:49;9.00;;;2.50;;
75554;SDS011;66087;53.126;17.960;2023-03-12T09:13:16;6.70;;;2.10;;
75554;SDS011;66087;53.126;17.960;2023-03-12T09:15:43;12.10;;;3.00;;
75554;SDS011;66087;53.126;17.960;2023-03-12T09:18:10;5.40;;;1.60;;
75554;SDS011;66087;53.126;17.960;2023-03-12T09:20:36;9.50;;;2.60;;
75554;SDS011;66087;53.126;17.960;2023-03-12T09:23:04;8.20;;;2.20;;
75554;SDS011;66087;53.126;17.960;2023-03-12T09:25:30;6.00;;;1.80;;
75554;SDS011;66087;53.126;17.960;2023-03-12T09:27:58;11.70;;;3.10;;
75554;SDS011;66087;53.126;17.960;2023-03-12T09:30:27;9.30;;;2.60;;
75554;SDS011;66087;53.126;17.960;2023-03-12T09:32:55;9.10;;;2.80;;
75554;SDS011;66087;53.126;17.960;2023-03-12T09:35:22;7.60;;;1.90;;
75554;SDS011;66087;53.126;17.960;2023-03-12T09:37:49;16.00;;;3.30;;
75554;SDS011;66087;53.126;17.960;2023-03-12T09:40:18;8.10;;;1.70;;
75554;SDS011;66087;53.126;17.960;2023-03-12T09:42:49;7.90;;;2.40;;
75554;SDS011;66087;53.126;17.960;2023-03-12T09:45:21;8.60;;;2.70;;
75554;SDS011;66087;53.126;17.960;2023-03-12T09:47:52;9.60;;;2.40;;
75554;SDS011;66087;53.126;17.960;2023-03-12T09:50:24;7.90;;;1.70;;
75554;SDS011;66087;53.126;17.960;2023-03-12T09:52:59;4.90;;;1.50;;
75554;SDS011;66087;53.126;17.960;2023-03-12T09:55:38;12.10;;;3.20;;
75554;SDS011;66087;53.126;17.960;2023-03-12T09:58:11;6.20;;;1.50;;
75554;SDS011;66087;53.126;17.960;2023-03-12T10:00:42;9.50;;;2.50;;
75554;SDS011;66087;53.126;17.960;2023-03-12T10:06:05;12.30;;;3.10;;
75554;SDS011;66087;53.126;17.960;2023-03-12T10:11:29;7.00;;;2.30;;
75554;SDS011;66087;53.126;17.960;2023-03-12T10:22:51;5.60;;;1.90;;
75554;SDS011;66087;53.126;17.960;2023-03-12T10:28:18;6.80;;;2.10;;
75554;SDS011;66087;53.126;17.960;2023-03-12T10:30:56;6.50;;;1.70;;
75554;SDS011;66087;53.126;17.960;2023-03-12T10:33:32;7.60;;;2.30;;
75554;SDS011;66087;53.126;17.960;2023-03-12T10:38:46;7.20;;;2.30;;
75554;SDS011;66087;53.126;17.960;2023-03-12T10:41:16;5.50;;;1.40;;
75554;SDS011;66087;53.126;17.960;2023-03-12T10:43:46;6.50;;;2.00;;
75554;SDS011;66087;53.126;17.960;2023-03-12T10:51:58;7.10;;;1.90;;
75554;SDS011;66087;53.126;17.960;2023-03-12T10:54:29;10.10;;;2.30;;
75554;SDS011;66087;53.126;17.960;2023-03-12T10:56:59;6.10;;;1.50;;
75554;SDS011;66087;53.126;17.960;2023-03-12T10:59:28;5.30;;;1.40;;
75554;SDS011;66087;53.126;17.960;2023-03-12T11:01:57;6.90;;;1.80;;
75554;SDS011;66087;53.126;17.960;2023-03-12T11:04:30;6.20;;;2.20;;
75554;SDS011;66087;53.126;17.960;2023-03-12T11:09:45;5.60;;;1.70;;
75554;SDS011;66087;53.126;17.960;2023-03-12T11:12:38;8.80;;;2.40;;
75554;SDS011;66087;53.126;17.960;2023-03-12T11:15:27;7.30;;;2.10;;
75554;SDS011;66087;53.126;17.960;2023-03-12T11:23:53;6.90;;;1.60;;
75554;SDS011;66087;53.126;17.960;2023-03-12T11:26:30;6.70;;;2.30;;
75554;SDS011;66087;53.126;17.960;2023-03-12T11:29:24;6.60;;;2.20;;
75554;SDS011;66087;53.126;17.960;2023-03-12T11:32:09;6.40;;;2.00;;
75554;SDS011;66087;53.126;17.960;2023-03-12T11:34:44;7.10;;;1.90;;
75554;SDS011;66087;53.126;17.960;2023-03-12T11:37:20;5.70;;;2.20;;
75554;SDS011;66087;53.126;17.960;2023-03-12T11:48:37;6.90;;;2.00;;
75554;SDS011;66087;53.126;17.960;2023-03-12T11:51:23;7.40;;;1.70;;
75554;SDS011;66087;53.126;17.960;2023-03-12T11:56:50;10.50;;;2.80;;
75554;SDS011;66087;53.126;17.960;2023-03-12T11:59:25;5.70;;;1.40;;
75554;SDS011;66087;53.126;17.960;2023-03-12T12:04:58;6.90;;;2.10;;
75554;SDS011;66087;53.126;17.960;2023-03-12T12:10:29;6.00;;;2.20;;
75554;SDS011;66087;53.126;17.960;2023-03-12T12:18:55;6.70;;;1.60;;
75554;SDS011;66087;53.126;17.960;2023-03-12T12:24:35;5.50;;;1.80;;
75554;SDS011;66087;53.126;17.960;2023-03-12T12:27:19;6.40;;;2.50;;
75554;SDS011;66087;53.126;17.960;2023-03-12T12:32:52;4.50;;;1.40;;
75554;SDS011;66087;53.126;17.960;2023-03-12T12:35:45;7.30;;;2.30;;
75554;SDS011;66087;53.126;17.960;2023-03-12T12:38:15;9.10;;;3.90;;
75554;SDS011;66087;53.126;17.960;2023-03-12T12:41:02;6.60;;;2.60;;
75554;SDS011;66087;53.126;17.960;2023-03-12T12:43:45;5.10;;;2.00;;
75554;SDS011;66087;53.126;17.960;2023-03-12T12:46:21;9.70;;;3.60;;
75554;SDS011;66087;53.126;17.960;2023-03-12T12:48:52;7.70;;;2.80;;
75554;SDS011;66087;53.126;17.960;2023-03-12T12:51:27;8.40;;;4.40;;
75554;SDS011;66087;53.126;17.960;2023-03-12T12:53:59;8.30;;;3.20;;
75554;SDS011;66087;53.126;17.960;2023-03-12T12:56:41;5.20;;;1.40;;
75554;SDS011;66087;53.126;17.960;2023-03-12T12:59:31;8.60;;;3.30;;
75554;SDS011;66087;53.126;17.960;2023-03-12T13:02:04;8.20;;;3.00;;
75554;SDS011;66087;53.126;17.960;2023-03-12T13:04:48;6.80;;;2.70;;
75554;SDS011;66087;53.126;17.960;2023-03-12T13:07:28;6.90;;;1.80;;
75554;SDS011;66087;53.126;17.960;2023-03-12T13:09:57;5.40;;;1.60;;
75554;SDS011;66087;53.126;17.960;2023-03-12T13:12:28;6.80;;;2.00;;
75554;SDS011;66087;53.126;17.960;2023-03-12T13:14:58;9.50;;;4.20;;
75554;SDS011;66087;53.126;17.960;2023-03-12T13:17:28;8.40;;;3.20;;
75554;SDS011;66087;53.126;17.960;2023-03-12T13:25:52;6.80;;;2.40;;
75554;SDS011;66087;53.126;17.960;2023-03-12T13:28:32;4.70;;;1.60;;
75554;SDS011;66087;53.126;17.960;2023-03-12T13:33:49;9.30;;;3.30;;
75554;SDS011;66087;53.126;17.960;2023-03-12T13:36:19;10.80;;;3.70;;
75554;SDS011;66087;53.126;17.960;2023-03-12T13:38:54;5.80;;;1.70;;
75554;SDS011;66087;53.126;17.960;2023-03-12T13:41:59;11.90;;;3.70;;
75554;SDS011;66087;53.126;17.960;2023-03-12T13:44:31;6.90;;;2.50;;
75554;SDS011;66087;53.126;17.960;2023-03-12T13:49:59;7.00;;;2.70;;
75554;SDS011;66087;53.126;17.960;2023-03-12T13:52:32;7.80;;;2.80;;
75554;SDS011;66087;53.126;17.960;2023-03-12T13:57:53;6.30;;;2.40;;
75554;SDS011;66087;53.126;17.960;2023-03-12T14:00:24;7.70;;;2.90;;
75554;SDS011;66087;53.126;17.960;2023-03-12T14:02:58;8.20;;;3.20;;
75554;SDS011;66087;53.126;17.960;2023-03-12T14:05:28;7.70;;;2.20;;
75554;SDS011;66087;53.126;17.960;2023-03-12T14:11:02;9.80;;;4.40;;
75554;SDS011;66087;53.126;17.960;2023-03-12T14:13:46;11.80;;;5.00;;
75554;SDS011;66087;53.126;17.960;2023-03-12T14:16:40;11.00;;;3.60;;
75554;SDS011;66087;53.126;17.960;2023-03-12T14:19:11;10.40;;;4.40;;
75554;SDS011;66087;53.126;17.960;2023-03-12T14:21:40;7.80;;;3.00;;
75554;SDS011;66087;53.126;17.960;2023-03-12T14:24:17;11.10;;;3.90;;
75554;SDS011;66087;53.126;17.960;2023-03-12T14:26:50;15.70;;;6.30;;
75554;SDS011;66087;53.126;17.960;2023-03-12T14:31:57;10.50;;;4.10;;
75554;SDS011;66087;53.126;17.960;2023-03-12T14:34:29;6.90;;;2.90;;
75554;SDS011;66087;53.126;17.960;2023-03-12T14:39:44;23.60;;;8.60;;
75554;SDS011;66087;53.126;17.960;2023-03-12T14:42:19;19.30;;;6.30;;
75554;SDS011;66087;53.126;17.960;2023-03-12T14:44:54;15.40;;;5.40;;
75554;SDS011;66087;53.126;17.960;2023-03-12T14:47:40;12.30;;;3.90;;
75554;SDS011;66087;53.126;17.960;2023-03-12T14:50:15;11.20;;;4.50;;
75554;SDS011;66087;53.126;17.960;2023-03-12T14:52:43;15.40;;;6.20;;
75554;SDS011;66087;53.126;17.960;2023-03-12T14:55:12;10.80;;;4.10;;
75554;SDS011;66087;53.126;17.960;2023-03-12T14:57:43;17.70;;;7.10;;
75554;SDS011;66087;53.126;17.960;2023-03-12T15:00:20;18.70;;;7.10;;
75554;SDS011;66087;53.126;17.960;2023-03-12T15:02:52;17.80;;;8.30;;
75554;SDS011;66087;53.126;17.960;2023-03-12T15:05:21;19.00;;;8.30;;
75554;SDS011;66087;53.126;17.960;2023-03-12T15:07:50;20.30;;;9.30;;
75554;SDS011;66087;53.126;17.960;2023-03-12T15:10:21;8.90;;;2.90;;
75554;SDS011;66087;53.126;17.960;2023-03-12T15:12:50;17.30;;;6.90;;
75554;SDS011;66087;53.126;17.960;2023-03-12T15:15:28;18.80;;;6.50;;
75554;SDS011;66087;53.126;17.960;2023-03-12T15:18:03;26.00;;;11.20;;
75554;SDS011;66087;53.126;17.960;2023-03-12T15:20:33;14.70;;;6.70;;
75554;SDS011;66087;53.126;17.960;2023-03-12T15:23:01;12.00;;;4.90;;
75554;SDS011;66087;53.126;17.960;2023-03-12T15:25:29;15.60;;;5.50;;
75554;SDS011;66087;53.126;17.960;2023-03-12T15:28:25;13.40;;;6.60;;
75554;SDS011;66087;53.126;17.960;2023-03-12T15:33:32;15.20;;;7.50;;
75554;SDS011;66087;53.126;17.960;2023-03-12T15:38:52;26.10;;;13.10;;
75554;SDS011;66087;53.126;17.960;2023-03-12T15:44:19;14.70;;;5.40;;
75554;SDS011;66087;53.126;17.960;2023-03-12T15:46:52;18.10;;;8.50;;
75554;SDS011;66087;53.126;17.960;2023-03-12T15:49:24;52.80;;;21.20;;
75554;SDS011;66087;53.126;17.960;2023-03-12T15:51:57;27.60;;;11.30;;
75554;SDS011;66087;53.126;17.960;2023-03-12T15:54:27;18.30;;;8.00;;
75554;SDS011;66087;53.126;17.960;2023-03-12T16:00:15;13.30;;;5.10;;
75554;SDS011;66087;53.126;17.960;2023-03-12T16:02:50;68.50;;;27.00;;
75554;SDS011;66087;53.126;17.960;2023-03-12T16:05:20;101.60;;;43.50;;
75554;SDS011;66087;53.126;17.960;2023-03-12T16:08:13;36.60;;;17.60;;
75554;SDS011;66087;53.126;17.960;2023-03-12T16:10:46;24.10;;;9.90;;
75554;SDS011;66087;53.126;17.960;2023-03-12T16:13:15;16.80;;;7.20;;
75554;SDS011;66087;53.126;17.960;2023-03-12T16:15:45;13.30;;;6.00;;
75554;SDS011;66087;53.126;17.960;2023-03-12T16:18:13;15.70;;;5.80;;
75554;SDS011;66087;53.126;17.960;2023-03-12T16:20:42;14.20;;;7.20;;
75554;SDS011;66087;53.126;17.960;2023-03-12T16:23:09;38.20;;;15.80;;
75554;SDS011;66087;53.126;17.960;2023-03-12T16:25:36;38.50;;;14.00;;
75554;SDS011;66087;53.126;17.960;2023-03-12T16:28:09;39.50;;;13.20;;
75554;SDS011;66087;53.126;17.960;2023-03-12T16:30:39;53.90;;;18.90;;
75554;SDS011;66087;53.126;17.960;2023-03-12T16:33:13;109.80;;;35.80;;
75554;SDS011;66087;53.126;17.960;2023-03-12T16:35:41;84.40;;;27.20;;